createdAt,value
2019-02-19T00:00:47.640Z,3.65
2019-02-19T00:03:54.988Z,3.87
2019-02-19T00:07:01.294Z,4.11
2019-02-19T00:10:07.875Z,4.64
2019-02-19T00:13:15.278Z,4.96
2019-02-19T00:16:22.092Z,5.03
2019-02-19T00:19:28.690Z,5.35
2019-02-19T00:22:35.271Z,5.29
2019-02-19T00:25:42.000Z,5.32
2019-02-19T00:28:48.476Z,5.39
2019-02-19T00:31:55.175Z,5.25
2019-02-19T00:35:01.664Z,5.28
2019-02-19T00:38:08.989Z,5.37
2019-02-19T00:41:16.029Z,5.45
2019-02-19T00:44:23.061Z,5.23
2019-02-19T00:47:29.821Z,5.32
2019-02-19T00:50:36.760Z,5.14
2019-02-19T00:53:43.427Z,5.18
2019-02-19T00:56:49.835Z,5.22
2019-02-19T00:59:56.732Z,5.38
2019-02-19T01:03:05.099Z,5.08
2019-02-19T01:06:11.871Z,5.12
2019-02-19T01:09:18.595Z,5.21
2019-02-19T01:12:25.069Z,5.16
2019-02-19T01:15:31.593Z,5.33
2019-02-19T01:18:37.929Z,5.19
2019-02-19T01:21:44.507Z,5.17
2019-02-19T01:24:50.776Z,4.87
2019-02-19T01:27:57.864Z,4.96
2019-02-19T01:31:04.511Z,4.89
2019-02-19T01:34:10.899Z,4.80
2019-02-19T01:37:17.453Z,4.91
2019-02-19T01:40:24.316Z,4.79
2019-02-19T01:43:30.926Z,4.84
2019-02-19T01:46:39.644Z,4.85
2019-02-19T01:49:45.894Z,4.91
2019-02-19T01:52:52.630Z,5.00
2019-02-19T01:55:58.981Z,4.56
2019-02-19T01:59:05.188Z,4.59
2019-02-19T02:02:11.643Z,4.38
2019-02-19T02:05:17.912Z,4.11
2019-02-19T02:08:24.330Z,3.87
2019-02-19T02:11:30.892Z,3.54
2019-02-19T02:14:37.894Z,3.32
2019-02-19T02:17:44.376Z,3.23
2019-02-19T02:20:50.625Z,3.45
2019-02-19T02:23:57.304Z,3.51
2019-02-19T02:27:03.477Z,3.56
2019-02-19T02:30:09.912Z,3.82
2019-02-19T02:33:16.393Z,4.23
2019-02-19T02:36:22.974Z,4.12
2019-02-19T02:39:29.922Z,4.18
2019-02-19T02:42:36.319Z,4.72
2019-02-19T02:45:53.059Z,4.79
2019-02-19T02:48:51.854Z,4.37
2019-02-19T02:51:58.531Z,4.52
2019-02-19T02:55:05.237Z,4.39
2019-02-19T02:58:11.979Z,4.37
2019-02-19T03:01:18.218Z,4.40
2019-02-19T03:04:24.871Z,4.06
2019-02-19T03:07:43.118Z,4.06
2019-02-19T03:10:49.679Z,4.23
2019-02-19T03:13:56.077Z,4.18
2019-02-19T03:17:02.575Z,4.44
2019-02-19T03:20:09.480Z,4.45
2019-02-19T03:23:15.968Z,4.16
2019-02-19T03:26:22.336Z,3.81
2019-02-19T03:29:28.643Z,3.66
2019-02-19T03:32:35.149Z,3.62
2019-02-19T03:35:41.521Z,3.72
2019-02-19T03:38:48.073Z,3.98
2019-02-19T03:41:54.621Z,4.19
2019-02-19T03:45:01.053Z,4.21
2019-02-19T03:48:08.011Z,4.52
2019-02-19T03:51:14.477Z,4.23
2019-02-19T03:54:20.934Z,3.98
2019-02-19T03:57:27.571Z,3.87
2019-02-19T04:00:34.119Z,3.64
2019-02-19T04:03:40.867Z,3.36
2019-02-19T04:06:47.334Z,3.16
2019-02-19T04:09:53.842Z,2.86
2019-02-19T04:13:00.986Z,2.67
2019-02-19T04:16:07.506Z,2.49
2019-02-19T04:19:14.187Z,2.41
2019-02-19T04:22:20.629Z,2.10
2019-02-19T04:25:26.950Z,1.98
2019-02-19T04:28:33.281Z,1.77
2019-02-19T04:31:40.165Z,1.62
2019-02-19T04:34:46.397Z,1.57
2019-02-19T04:37:52.913Z,1.52
2019-02-19T04:40:59.602Z,1.39
2019-02-19T04:44:05.962Z,1.16
2019-02-19T04:47:12.762Z,0.98
2019-02-19T04:50:19.802Z,0.84
2019-02-19T04:53:26.653Z,0.62
2019-02-19T04:56:33.372Z,0.42
2019-02-19T04:59:40.596Z,0.28
2019-02-19T05:02:47.364Z,0.19
2019-02-19T05:05:53.900Z,0.08
2019-02-19T05:09:00.680Z,-0.03
2019-02-19T05:12:08.026Z,-0.08
2019-02-19T05:15:14.721Z,-0.12
2019-02-19T05:18:21.007Z,-0.15
2019-02-19T05:21:28.454Z,-0.30
2019-02-19T05:24:35.554Z,-0.35
2019-02-19T05:27:43.369Z,-0.44
2019-02-19T05:30:49.956Z,-0.52
2019-02-19T05:33:56.578Z,-0.54
2019-02-19T05:37:03.359Z,-0.58
2019-02-19T05:40:10.487Z,-0.55
2019-02-19T05:43:16.963Z,-0.60
2019-02-19T05:46:23.307Z,-0.65
2019-02-19T05:49:29.665Z,-0.68
2019-02-19T05:52:36.253Z,-0.72
2019-02-19T05:55:42.524Z,-0.71
2019-02-19T05:58:49.182Z,-0.76
2019-02-19T06:01:55.503Z,-0.76
2019-02-19T06:05:02.220Z,-0.70
2019-02-19T06:08:08.517Z,-0.68
2019-02-19T06:11:15.576Z,-0.68
2019-02-19T06:14:22.263Z,-0.66
2019-02-19T06:17:28.656Z,-0.62
2019-02-19T06:20:35.284Z,-0.62
2019-02-19T06:23:41.800Z,-0.43
2019-02-19T06:26:48.454Z,-0.36
2019-02-19T06:29:54.956Z,-0.22
2019-02-19T06:33:01.243Z,-0.09
2019-02-19T06:36:08.178Z,-0.15
2019-02-19T06:39:14.938Z,-0.05
2019-02-19T06:42:23.347Z,0.01
2019-02-19T06:45:29.535Z,0.07
2019-02-19T06:48:35.867Z,0.16
2019-02-19T06:51:43.142Z,0.23
2019-02-19T06:54:49.596Z,0.40
2019-02-19T06:57:56.161Z,0.43
2019-02-19T07:01:02.817Z,0.52
2019-02-19T07:04:16.082Z,0.55
2019-02-19T07:07:22.631Z,0.57
2019-02-19T07:10:29.126Z,0.61
2019-02-19T07:13:35.926Z,0.68
2019-02-19T07:16:43.079Z,0.91
2019-02-19T07:19:49.340Z,1.34
2019-02-19T07:22:56.116Z,1.61
2019-02-19T07:26:02.968Z,1.85
2019-02-19T07:29:09.644Z,2.04
2019-02-19T07:32:16.285Z,2.25
2019-02-19T07:35:22.636Z,2.47
2019-02-19T07:38:29.019Z,2.72
2019-02-19T07:41:35.811Z,2.96
2019-02-19T07:44:42.098Z,3.14
2019-02-19T07:47:48.953Z,3.36
2019-02-19T07:50:55.249Z,3.47
2019-02-19T07:54:01.560Z,3.53
2019-02-19T07:57:08.279Z,3.59
2019-02-19T08:00:15.533Z,3.80
2019-02-19T08:03:22.123Z,3.92
2019-02-19T08:06:28.545Z,4.11
2019-02-19T08:09:35.320Z,4.13
2019-02-19T08:12:42.877Z,4.17
2019-02-19T08:15:50.180Z,4.47
2019-02-19T08:18:57.028Z,4.59
2019-02-19T08:22:04.242Z,4.72
2019-02-19T08:25:11.156Z,4.73
2019-02-19T08:28:18.185Z,4.75
2019-02-19T08:31:24.911Z,4.75
2019-02-19T08:34:31.644Z,4.98
2019-02-19T08:37:39.188Z,4.98
2019-02-19T08:40:46.417Z,5.04
2019-02-19T08:43:52.757Z,5.05
2019-02-19T08:46:59.266Z,5.08
2019-02-19T08:50:05.861Z,5.07
2019-02-19T08:53:12.295Z,5.15
2019-02-19T08:56:18.823Z,5.15
2019-02-19T08:59:25.124Z,5.36
2019-02-19T09:02:31.922Z,5.28
2019-02-19T09:05:38.634Z,5.24
2019-02-19T09:08:45.351Z,5.32
2019-02-19T09:11:51.658Z,5.28
2019-02-19T09:14:58.596Z,5.53
2019-02-19T09:18:05.084Z,5.71
2019-02-19T09:21:11.836Z,5.74
2019-02-19T09:24:18.746Z,5.71
2019-02-19T09:27:25.889Z,5.54
2019-02-19T09:30:32.382Z,5.39
2019-02-19T09:33:39.088Z,5.53
2019-02-19T09:36:45.873Z,5.37
2019-02-19T09:39:52.200Z,5.29
2019-02-19T09:42:58.727Z,5.42
2019-02-19T09:46:05.506Z,5.31
2019-02-19T09:49:11.853Z,5.40
2019-02-19T09:52:18.676Z,5.42
2019-02-19T09:55:25.438Z,5.58
2019-02-19T09:58:32.075Z,5.54
2019-02-19T10:01:39.083Z,5.52
2019-02-19T10:04:45.855Z,5.47
2019-02-19T10:07:52.658Z,5.46
2019-02-19T10:10:59.289Z,5.43
2019-02-19T10:14:06.447Z,5.38
2019-02-19T10:17:16.130Z,5.41
2019-02-19T10:20:22.725Z,5.45
2019-02-19T10:23:29.382Z,5.30
2019-02-19T10:26:36.782Z,5.27
2019-02-19T10:29:43.815Z,5.32
2019-02-19T10:32:50.233Z,5.36
2019-02-19T10:35:56.755Z,5.31
2019-02-19T10:39:04.789Z,5.40
2019-02-19T10:42:11.406Z,5.36
2019-02-19T10:45:18.700Z,5.40
2019-02-19T10:48:25.519Z,5.31
2019-02-19T10:51:35.299Z,5.31
2019-02-19T10:54:42.655Z,5.31
2019-02-19T10:57:51.256Z,5.33
2019-02-19T11:00:59.198Z,5.37
2019-02-19T11:04:08.475Z,5.16
2019-02-19T11:07:16.197Z,5.16
2019-02-19T11:10:28.062Z,5.20
2019-02-19T11:13:40.142Z,5.12
2019-02-19T11:16:47.786Z,5.14
2019-02-19T11:19:56.669Z,5.13
2019-02-19T11:23:06.115Z,4.98
2019-02-19T11:26:17.079Z,5.05
2019-02-19T11:29:24.441Z,4.99
2019-02-19T11:32:31.121Z,5.00
2019-02-19T11:35:37.873Z,5.02
2019-02-19T11:38:44.820Z,5.00
2019-02-19T11:41:52.252Z,5.06
2019-02-19T11:44:59.749Z,5.06
2019-02-19T11:48:06.468Z,5.12
2019-02-19T11:51:12.942Z,5.22
2019-02-19T11:54:19.717Z,5.27
2019-02-19T11:57:26.380Z,5.25
2019-02-19T12:00:35.306Z,5.20
2019-02-19T12:03:41.963Z,5.15
2019-02-19T12:06:48.357Z,5.30
2019-02-19T12:09:54.989Z,5.30
2019-02-19T12:13:02.581Z,5.49
2019-02-19T12:16:09.351Z,5.51
2019-02-19T12:19:16.060Z,5.66
2019-02-19T12:22:22.880Z,5.61
2019-02-19T12:25:29.374Z,5.73
2019-02-19T12:28:36.157Z,5.73
2019-02-19T12:31:43.203Z,5.84
2019-02-19T12:34:49.728Z,5.90
2019-02-19T12:37:56.441Z,6.02
2019-02-19T12:41:02.928Z,6.03
2019-02-19T12:44:09.789Z,6.22
2019-02-19T12:47:16.208Z,6.39
2019-02-19T12:50:22.643Z,6.47
2019-02-19T12:53:29.515Z,6.58
2019-02-19T12:56:37.232Z,6.65
2019-02-19T12:59:43.988Z,6.74
2019-02-19T13:02:50.743Z,6.86
2019-02-19T13:05:57.445Z,6.98
2019-02-19T13:09:06.001Z,7.03
2019-02-19T13:12:12.974Z,7.29
2019-02-19T13:15:19.931Z,7.35
2019-02-19T13:18:26.809Z,7.55
2019-02-19T13:21:34.296Z,7.45
2019-02-19T13:24:41.067Z,7.33
2019-02-19T13:27:48.242Z,7.14
2019-02-19T13:30:55.240Z,7.09
2019-02-19T13:34:02.524Z,7.23
2019-02-19T13:37:09.233Z,7.17
2019-02-19T13:40:16.302Z,7.19
2019-02-19T13:43:23.685Z,7.46
2019-02-19T13:46:31.015Z,7.74
2019-02-19T13:49:37.728Z,7.86
2019-02-19T13:52:52.887Z,7.79
2019-02-19T13:56:01.876Z,7.79
2019-02-19T13:59:11.294Z,8.04
2019-02-19T14:02:19.639Z,8.07
2019-02-19T14:05:26.298Z,8.27
2019-02-19T14:08:33.211Z,7.67
2019-02-19T14:11:39.734Z,7.46
2019-02-19T14:14:51.119Z,7.41
2019-02-19T14:17:58.668Z,7.51
2019-02-19T14:21:23.316Z,7.54
2019-02-19T14:25:01.875Z,7.45
2019-02-19T14:28:46.995Z,7.47
2019-02-19T14:32:09.371Z,7.35
2019-02-19T14:35:35.169Z,7.21
2019-02-19T14:38:59.327Z,7.30
2019-02-19T14:42:32.690Z,7.14
2019-02-19T14:46:16.314Z,7.03
2019-02-19T14:49:37.349Z,6.93
2019-02-19T14:53:03.848Z,6.99
2019-02-19T14:56:29.439Z,7.10
2019-02-19T15:00:07.468Z,7.03
2019-02-19T15:03:41.960Z,7.04
2019-02-19T15:07:07.936Z,6.75
2019-02-19T15:10:48.763Z,6.86
2019-02-19T15:14:17.854Z,6.70
2019-02-19T15:17:46.197Z,6.74
2019-02-19T15:21:02.847Z,6.75
2019-02-19T15:24:26.613Z,6.52
2019-02-19T15:27:38.239Z,6.46
2019-02-19T15:30:56.253Z,6.45
2019-02-19T15:34:20.277Z,6.42
2019-02-19T15:37:44.702Z,6.28
2019-02-19T15:41:07.041Z,6.31
2019-02-19T15:44:47.795Z,6.18
2019-02-19T15:48:16.698Z,6.22
2019-02-19T15:51:51.533Z,5.93
2019-02-19T15:55:15.703Z,5.74
2019-02-19T15:58:40.107Z,5.65
2019-02-19T16:02:06.294Z,5.65
2019-02-19T16:05:32.160Z,5.49
2019-02-19T16:09:01.293Z,5.41
2019-02-19T16:12:21.624Z,5.25
2019-02-19T16:15:48.481Z,5.11
2019-02-19T16:19:20.194Z,4.88
2019-02-19T16:22:48.952Z,4.70
2019-02-19T16:26:18.795Z,4.47
2019-02-19T16:29:44.538Z,4.37
2019-02-19T16:33:25.255Z,4.17
2019-02-19T16:36:50.819Z,3.92
2019-02-19T16:40:05.469Z,3.84
2019-02-19T16:43:43.363Z,3.81
2019-02-19T16:47:15.243Z,3.64
2019-02-19T16:50:44.021Z,3.58
2019-02-19T16:54:22.328Z,3.54
2019-02-19T16:57:37.500Z,3.47
2019-02-19T17:01:02.502Z,3.39
2019-02-19T17:04:22.017Z,3.08
2019-02-19T17:07:36.977Z,3.11
2019-02-19T17:10:57.167Z,2.96
2019-02-19T17:14:22.112Z,3.06
2019-02-19T17:17:45.737Z,2.88
2019-02-19T17:21:08.900Z,2.77
2019-02-19T17:24:29.404Z,2.73
2019-02-19T17:27:53.161Z,3.00
2019-02-19T17:31:34.764Z,2.92
2019-02-19T17:34:58.975Z,2.93
2019-02-19T17:38:25.091Z,2.88
2019-02-19T17:41:39.391Z,2.82
2019-02-19T17:45:04.430Z,2.93
2019-02-19T17:48:33.379Z,2.87
2019-02-19T17:52:02.599Z,2.77
2019-02-19T17:55:29.696Z,2.75
2019-02-19T17:58:44.810Z,2.92
2019-02-19T18:02:22.666Z,2.77
2019-02-19T18:05:47.276Z,2.94
2019-02-19T18:09:07.158Z,2.91
2019-02-19T18:12:33.800Z,2.67
2019-02-19T18:16:11.781Z,2.67
2019-02-19T18:19:18.894Z,2.52
2019-02-19T18:22:26.192Z,2.52
2019-02-19T18:25:32.769Z,2.41
2019-02-19T18:28:39.546Z,2.22
2019-02-19T18:31:46.848Z,2.19
2019-02-19T18:34:53.355Z,2.09
2019-02-19T18:38:00.230Z,1.86
2019-02-19T18:41:06.773Z,1.88
2019-02-19T18:44:13.533Z,1.82
2019-02-19T18:47:21.913Z,1.82
2019-02-19T18:50:29.366Z,1.82
2019-02-19T18:53:35.745Z,1.68
2019-02-19T18:56:43.006Z,1.61
2019-02-19T18:59:52.934Z,1.56
2019-02-19T19:03:00.099Z,1.39
2019-02-19T19:06:06.995Z,1.53
2019-02-19T19:09:14.243Z,1.46
2019-02-19T19:12:21.264Z,1.37
2019-02-19T19:15:28.090Z,1.36
2019-02-19T19:18:35.165Z,1.37
2019-02-19T19:21:45.250Z,1.31
2019-02-19T19:24:52.514Z,1.13
2019-02-19T19:27:59.315Z,1.21
2019-02-19T19:31:06.665Z,1.06
2019-02-19T19:34:13.490Z,1.01
2019-02-19T19:37:20.266Z,0.93
2019-02-19T19:40:27.201Z,0.81
2019-02-19T19:43:34.142Z,0.62
2019-02-19T19:46:40.698Z,0.62
2019-02-19T19:49:47.172Z,0.61
2019-02-19T19:52:58.542Z,0.69
2019-02-19T19:56:05.512Z,0.78
2019-02-19T19:59:12.107Z,0.88
2019-02-19T20:02:20.019Z,0.85
2019-02-19T20:05:28.267Z,0.84
2019-02-19T20:08:35.491Z,0.73
2019-02-19T20:11:43.564Z,0.52
2019-02-19T20:14:51.065Z,0.52
2019-02-19T20:17:58.186Z,0.58
2019-02-19T20:21:04.999Z,0.43
2019-02-19T20:24:12.120Z,0.59
2019-02-19T20:27:18.885Z,0.51
2019-02-19T20:30:26.156Z,0.45
2019-02-19T20:33:33.047Z,0.44
2019-02-19T20:36:40.125Z,0.33
2019-02-19T20:39:47.883Z,0.29
2019-02-19T20:42:55.166Z,0.26
2019-02-19T20:46:02.524Z,0.16
2019-02-19T20:49:09.635Z,0.12
2019-02-19T20:52:16.647Z,-0.05
2019-02-19T20:55:23.218Z,-0.14
2019-02-19T20:58:30.179Z,-0.13
2019-02-19T21:01:40.769Z,-0.16
2019-02-19T21:04:48.162Z,-0.33
2019-02-19T21:07:54.771Z,-0.45
2019-02-19T21:11:01.393Z,-0.50
2019-02-19T21:14:08.581Z,-0.61
2019-02-19T21:17:14.951Z,-0.67
2019-02-19T21:20:24.404Z,-0.64
2019-02-19T21:23:31.616Z,-0.72
2019-02-19T21:26:38.933Z,-0.72
2019-02-19T21:29:46.299Z,-0.80
2019-02-19T21:32:54.327Z,-0.84
2019-02-19T21:36:01.151Z,-0.96
2019-02-19T21:39:07.864Z,-1.03
2019-02-19T21:42:15.835Z,-1.12
2019-02-19T21:45:22.580Z,-1.15
2019-02-19T21:48:29.577Z,-1.24
2019-02-19T21:51:37.356Z,-1.30
2019-02-19T21:54:44.523Z,-1.25
2019-02-19T21:57:50.923Z,-1.28
2019-02-19T22:00:57.730Z,-1.29
2019-02-19T22:04:04.211Z,-1.32
2019-02-19T22:07:11.061Z,-1.24
2019-02-19T22:10:17.503Z,-1.27
2019-02-19T22:13:24.660Z,-1.22
2019-02-19T22:16:32.229Z,-1.19
2019-02-19T22:19:40.599Z,-1.22
2019-02-19T22:22:47.346Z,-1.15
2019-02-19T22:25:53.729Z,-1.17
2019-02-19T22:29:00.493Z,-1.21
2019-02-19T22:32:08.097Z,-1.21
2019-02-19T22:35:15.784Z,-1.22
2019-02-19T22:38:22.125Z,-1.17
2019-02-19T22:41:28.739Z,-1.19
2019-02-19T22:44:35.526Z,-1.14
2019-02-19T22:47:42.134Z,-1.17
2019-02-19T22:50:49.724Z,-1.23
2019-02-19T22:54:10.048Z,-1.28
2019-02-19T22:57:16.685Z,-1.31
2019-02-19T23:00:47.319Z,-1.33
2019-02-19T23:03:56.037Z,-1.43
2019-02-19T23:07:02.578Z,-1.44
2019-02-19T23:10:09.383Z,-1.53
2019-02-19T23:13:16.245Z,-1.47
2019-02-19T23:16:22.676Z,-1.40
2019-02-19T23:19:28.902Z,-1.45
2019-02-19T23:22:35.572Z,-1.43
2019-02-19T23:25:42.023Z,-1.37
2019-02-19T23:28:48.508Z,-1.54
2019-02-19T23:31:55.096Z,-1.54
2019-02-19T23:35:15.912Z,-1.49
2019-02-19T23:38:22.378Z,-1.72
2019-02-19T23:41:29.741Z,-1.73
2019-02-19T23:44:36.532Z,-1.61
2019-02-19T23:47:43.376Z,-1.67
2019-02-19T23:50:50.177Z,-1.73
2019-02-19T23:53:57.400Z,-1.77
2019-02-19T23:57:03.841Z,-1.68
